Time;durP1;ratioP1;P1;durP2;ratioP2;P2;SDS_P1;SDS_P2;PMS_P1;PMS_P2;Temp;Humidity;BMP_temperature;BMP_pressure;BME280_temperature;BME280_humidity;BME280_pressure;Samples;Min_cycle;Max_cycle;Signal;HPM_P1;HPM_P2
2021/08/14 00:00:10;;;;;;;14.13;7.32;;;;;;;16.63;100.00;94548.50;5072736;28;20208;-76
2021/08/14 00:02:36;;;;;;;11.93;7.65;;;;;;;16.70;100.00;94551.88;5072426;28;20209;-76
2021/08/14 00:05:04;;;;;;;14.65;8.80;;;;;;;16.82;100.00;94552.78;5071482;28;20430;-75
2021/08/14 00:07:30;;;;;;;15.63;7.43;;;;;;;16.75;100.00;94553.88;5072592;28;20293;-76
2021/08/14 00:09:57;;;;;;;13.07;7.22;;;;;;;16.62;100.00;94553.00;5073019;28;20195;-76
2021/08/14 00:12:25;;;;;;;12.07;7.60;;;;;;;16.57;100.00;94552.84;5072571;28;20238;-78
2021/08/14 00:14:53;;;;;;;14.40;7.63;;;;;;;16.59;100.00;94548.16;5072379;28;20203;-77
2021/08/14 00:17:19;;;;;;;18.83;8.07;;;;;;;16.48;100.00;94550.69;5072400;28;20206;-77
2021/08/14 00:19:46;;;;;;;11.43;7.22;;;;;;;16.52;100.00;94547.41;5072473;28;20211;-77
2021/08/14 00:22:12;;;;;;;14.40;8.27;;;;;;;16.61;100.00;94545.28;5072371;28;20282;-77
2021/08/14 00:24:42;;;;;;;14.20;8.32;;;;;;;16.62;100.00;94547.72;5072317;28;20203;-76
2021/08/14 00:27:08;;;;;;;15.45;8.20;;;;;;;16.68;100.00;94537.31;5072099;28;20693;-76
2021/08/14 00:29:35;;;;;;;15.43;7.50;;;;;;;16.67;100.00;94544.44;5071899;28;20205;-76
2021/08/14 00:32:03;;;;;;;16.38;7.80;;;;;;;16.48;100.00;94534.88;5071842;28;20229;-77
2021/08/14 00:34:30;;;;;;;12.85;7.13;;;;;;;16.35;100.00;94541.09;5072444;28;20199;-77
2021/08/14 00:36:59;;;;;;;15.15;7.95;;;;;;;16.34;100.00;94537.66;5072296;28;20260;-76
2021/08/14 00:39:26;;;;;;;17.00;8.27;;;;;;;16.31;100.00;94539.91;5072203;28;20198;-76
2021/08/14 00:41:52;;;;;;;14.05;8.43;;;;;;;16.30;100.00;94539.09;5072078;28;20733;-77
2021/08/14 00:44:19;;;;;;;15.88;8.48;;;;;;;16.39;100.00;94537.81;5074014;28;20273;-78
2021/08/14 00:46:46;;;;;;;14.70;8.40;;;;;;;16.41;100.00;94540.22;5075544;28;20764;-77
2021/08/14 00:49:14;;;;;;;17.67;9.27;;;;;;;16.39;100.00;94531.72;5074597;28;20434;-77
2021/08/14 00:51:45;;;;;;;19.88;8.20;;;;;;;16.56;100.00;94526.69;5075417;28;20222;-77
2021/08/14 00:54:12;;;;;;;13.25;7.70;;;;;;;16.60;100.00;94523.41;5075494;28;20231;-77
2021/08/14 00:56:39;;;;;;;16.30;8.82;;;;;;;16.53;100.00;94532.41;5075517;28;20203;-78
2021/08/14 00:59:06;;;;;;;17.02;8.57;;;;;;;16.44;100.00;94526.63;5075224;28;20202;-77
2021/08/14 01:01:33;;;;;;;17.67;7.97;;;;;;;16.39;100.00;94526.47;5075236;28;20661;-77
2021/08/14 01:04:03;;;;;;;16.67;8.13;;;;;;;16.30;100.00;94525.91;5075483;28;20210;-76
2021/08/14 01:06:31;;;;;;;13.75;8.05;;;;;;;16.26;100.00;94522.13;5075399;28;20569;-77
2021/08/14 01:09:00;;;;;;;13.25;8.05;;;;;;;16.25;100.00;94521.31;5075327;28;20214;-76
2021/08/14 01:11:29;;;;;;;16.58;8.68;;;;;;;16.24;100.00;94514.44;5075067;28;20222;-75
2021/08/14 01:13:57;;;;;;;16.40;7.78;;;;;;;16.18;100.00;94504.75;5075042;28;20218;-77
2021/08/14 01:16:25;;;;;;;15.02;6.90;;;;;;;16.13;100.00;94522.22;5075227;28;20203;-79
2021/08/14 01:18:53;;;;;;;16.63;8.25;;;;;;;16.05;100.00;94523.31;5075229;28;20210;-77
2021/08/14 01:21:21;;;;;;;21.73;8.95;;;;;;;16.14;100.00;94518.56;5074794;28;20293;-76
2021/08/14 01:23:52;;;;;;;14.45;8.75;;;;;;;16.18;100.00;94515.28;5075019;28;20557;-77
2021/08/14 01:26:20;;;;;;;15.73;8.85;;;;;;;16.22;100.00;94516.47;5074811;28;20661;-76
2021/08/14 01:28:49;;;;;;;18.85;8.48;;;;;;;16.30;100.00;94507.47;5074720;28;20661;-76
2021/08/14 01:31:19;;;;;;;16.02;8.27;;;;;;;16.30;100.00;94504.84;5074816;28;20206;-75
2021/08/14 01:33:45;;;;;;;17.42;8.60;;;;;;;16.24;100.00;94506.53;5074772;28;20203;-76
2021/08/14 01:36:16;;;;;;;10.85;7.72;;;;;;;16.20;100.00;94507.16;5074776;28;20210;-76
2021/08/14 01:38:48;;;;;;;15.15;8.50;;;;;;;16.08;100.00;94514.97;5074583;28;20615;-77
2021/08/14 01:41:15;;;;;;;17.42;9.38;;;;;;;16.03;100.00;94509.56;5074507;28;20630;-76
2021/08/14 01:43:57;;;;;;;16.58;8.23;;;;;;;16.02;100.00;94507.94;5074583;28;20649;-76
2021/08/14 01:46:26;;;;;;;17.90;9.52;;;;;;;16.03;100.00;94507.72;5074584;28;20665;-75
2021/08/14 01:48:53;;;;;;;18.33;9.30;;;;;;;16.08;100.00;94509.69;5074535;28;20238;-77
2021/08/14 01:51:20;;;;;;;24.10;8.77;;;;;;;16.10;100.00;94505.03;5074158;28;20205;-76
2021/08/14 01:53:49;;;;;;;17.70;8.68;;;;;;;16.06;100.00;94502.00;5074519;28;20198;-76
2021/08/14 01:56:16;;;;;;;16.98;9.38;;;;;;;16.06;100.00;94501.22;5074475;28;20226;-77
2021/08/14 01:58:43;;;;;;;15.45;8.93;;;;;;;16.02;100.00;94500.03;5074223;28;20225;-76
2021/08/14 02:01:11;;;;;;;13.18;8.57;;;;;;;16.06;100.00;94501.22;5074131;28;20680;-77
2021/08/14 02:03:38;;;;;;;16.13;8.73;;;;;;;16.02;100.00;94494.75;5074075;28;20202;-76
2021/08/14 02:06:08;;;;;;;16.83;9.57;;;;;;;16.02;100.00;94492.94;5074325;28;20210;-76
2021/08/14 02:08:36;;;;;;;16.80;8.95;;;;;;;16.03;100.00;94491.09;5074147;28;20210;-75
2021/08/14 02:11:03;;;;;;;14.23;8.25;;;;;;;15.98;100.00;94490.97;5074073;28;20261;-78
2021/08/14 02:13:33;;;;;;;15.07;8.35;;;;;;;15.87;100.00;94493.28;5073897;28;20317;-76
2021/08/14 02:15:59;;;;;;;19.48;9.68;;;;;;;15.77;100.00;94495.59;5073207;28;20444;-76
2021/08/14 02:18:27;;;;;;;17.65;9.02;;;;;;;15.81;100.00;94495.97;5073678;28;20207;-77
2021/08/14 02:20:54;;;;;;;18.35;9.25;;;;;;;15.79;100.00;94495.38;5073920;28;20199;-75
2021/08/14 02:23:20;;;;;;;20.42;9.27;;;;;;;15.84;100.00;94488.44;5073817;28;20214;-76
2021/08/14 02:25:47;;;;;;;15.27;9.25;;;;;;;15.90;100.00;94487.59;5073403;28;20206;-76
2021/08/14 02:28:13;;;;;;;15.02;9.13;;;;;;;16.02;100.00;94486.84;5073515;28;20202;-76
2021/08/14 02:30:40;;;;;;;14.40;8.35;;;;;;;16.00;100.00;94481.00;5073547;28;20204;-76
2021/08/14 02:33:09;;;;;;;15.27;8.52;;;;;;;15.98;100.00;94488.31;5073678;28;20257;-76
2021/08/14 02:35:39;;;;;;;11.98;8.13;;;;;;;15.98;100.00;94480.41;5073671;28;20202;-76
2021/08/14 02:38:09;;;;;;;17.40;9.10;;;;;;;15.96;100.00;94491.16;5073675;28;20203;-75
2021/08/14 02:40:39;;;;;;;15.32;8.43;;;;;;;15.90;100.00;94490.22;5073582;28;20292;-78
2021/08/14 02:43:06;;;;;;;13.40;9.00;;;;;;;15.83;100.00;94483.38;5073308;28;20699;-77
2021/08/14 02:45:33;;;;;;;18.98;8.57;;;;;;;15.79;100.00;94476.94;5073127;28;20231;-76
2021/08/14 02:48:01;;;;;;;13.40;8.90;;;;;;;15.77;100.00;94477.16;5073472;28;20211;-77
2021/08/14 02:50:30;;;;;;;19.17;9.02;;;;;;;15.78;100.00;94478.75;5073463;28;20248;-77
2021/08/14 02:53:05;;;;;;;16.67;8.75;;;;;;;15.76;100.00;94475.53;5073227;28;20359;-75
2021/08/14 02:55:32;;;;;;;17.10;9.38;;;;;;;15.88;100.00;94473.81;5073344;28;20198;-76
2021/08/14 02:57:58;;;;;;;18.20;8.75;;;;;;;15.71;100.00;94481.41;5073115;28;20209;-76
2021/08/14 03:00:25;;;;;;;18.50;8.90;;;;;;;15.64;100.00;94472.75;5073268;28;20202;-76
2021/08/14 03:02:51;;;;;;;18.83;9.70;;;;;;;15.68;100.00;94476.56;5073251;28;20222;-76
2021/08/14 03:05:19;;;;;;;17.13;8.60;;;;;;;15.64;100.00;94472.75;5073110;28;20557;-76
2021/08/14 03:07:46;;;;;;;13.10;8.63;;;;;;;15.59;100.00;94474.41;5072552;28;20207;-76
2021/08/14 03:10:14;;;;;;;16.02;9.27;;;;;;;15.50;100.00;94479.13;5073018;28;20199;-76
2021/08/14 03:12:40;;;;;;;12.57;8.15;;;;;;;15.36;100.00;94473.97;5072911;28;20230;-76
2021/08/14 03:15:10;;;;;;;18.88;8.75;;;;;;;15.33;100.00;94471.75;5073086;28;20557;-76
2021/08/14 03:17:37;;;;;;;18.20;8.80;;;;;;;15.23;100.00;94475.88;5072997;28;20286;-77
2021/08/14 03:20:05;;;;;;;14.43;8.68;;;;;;;15.16;100.00;94481.97;5072852;28;20205;-77
2021/08/14 03:22:32;;;;;;;16.27;9.90;;;;;;;15.29;100.00;94475.03;5072961;28;20574;-76
2021/08/14 03:24:58;;;;;;;20.67;11.27;;;;;;;15.59;100.00;94469.16;5072749;28;20205;-76
2021/08/14 03:27:26;;;;;;;15.32;10.65;;;;;;;15.66;100.00;94472.56;5072853;28;20207;-77
2021/08/14 03:29:53;;;;;;;18.05;9.88;;;;;;;15.65;100.00;94466.47;5072907;28;20231;-77
2021/08/14 03:32:19;;;;;;;16.60;9.88;;;;;;;15.68;100.00;94467.88;5072710;28;20230;-76
2021/08/14 03:34:46;;;;;;;16.10;9.35;;;;;;;15.63;100.00;94467.72;5072805;28;20214;-75
2021/08/14 03:37:13;;;;;;;14.00;8.48;;;;;;;15.47;100.00;94461.13;5072653;28;20202;-77
2021/08/14 03:39:40;;;;;;;18.58;8.85;;;;;;;15.35;100.00;94474.16;5072718;28;20230;-77
2021/08/14 03:42:09;;;;;;;18.70;8.90;;;;;;;15.22;100.00;94471.63;5072887;28;20199;-77
2021/08/14 03:44:37;;;;;;;15.88;9.98;;;;;;;15.13;100.00;94469.25;5071959;28;20461;-76
2021/08/14 03:47:04;;;;;;;15.68;8.77;;;;;;;15.07;100.00;94466.66;5072810;28;20202;-77
2021/08/14 03:49:31;;;;;;;16.48;8.90;;;;;;;15.01;100.00;94467.50;5072766;28;20210;-76
2021/08/14 03:51:57;;;;;;;19.52;9.70;;;;;;;15.01;100.00;94473.56;5072504;28;20206;-77
2021/08/14 03:54:23;;;;;;;15.15;8.82;;;;;;;15.07;100.00;94470.09;5073573;28;20206;-77
2021/08/14 03:56:54;;;;;;;14.25;9.30;;;;;;;15.04;100.00;94469.69;5072711;28;20727;-77
2021/08/14 03:59:20;;;;;;;16.42;9.20;;;;;;;14.99;100.00;94470.34;5072775;28;20221;-77
2021/08/14 04:01:48;;;;;;;15.35;9.27;;;;;;;14.89;100.00;94477.84;5072555;28;20204;-77
2021/08/14 04:04:15;;;;;;;19.23;10.05;;;;;;;14.99;100.00;94467.72;5072347;28;20202;-78
2021/08/14 04:06:41;;;;;;;23.60;10.75;;;;;;;15.01;100.00;94478.84;5073077;28;20203;-76
2021/08/14 04:09:08;;;;;;;20.50;10.73;;;;;;;15.04;100.00;94477.59;5072788;28;20585;-78
2021/08/14 04:11:34;;;;;;;15.43;10.48;;;;;;;15.03;100.00;94476.78;5072552;28;20206;-78
2021/08/14 04:14:04;;;;;;;21.42;11.40;;;;;;;15.12;100.00;94475.53;5072291;28;20726;-77
2021/08/14 04:16:30;;;;;;;20.48;11.38;;;;;;;15.15;100.00;94474.28;5072462;28;20277;-77
2021/08/14 04:18:58;;;;;;;24.63;11.77;;;;;;;15.31;100.00;94473.00;5073867;28;20206;-77
2021/08/14 04:21:26;;;;;;;26.88;12.00;;;;;;;15.35;100.00;94480.25;5076172;28;20557;-77
2021/08/14 04:23:52;;;;;;;18.00;11.05;;;;;;;15.37;100.00;94480.06;5075797;28;20332;-77
2021/08/14 04:26:19;;;;;;;18.55;10.80;;;;;;;15.21;100.00;94475.28;5076197;28;20199;-75
2021/08/14 04:28:45;;;;;;;19.42;11.32;;;;;;;15.26;100.00;94472.84;5075866;28;20653;-77
2021/08/14 04:31:12;;;;;;;18.88;10.98;;;;;;;15.34;100.00;94469.94;5076007;28;20569;-77
2021/08/14 04:33:38;;;;;;;18.02;10.23;;;;;;;15.29;100.00;94465.31;5075817;28;20230;-77
2021/08/14 04:36:06;;;;;;;15.25;9.70;;;;;;;15.27;100.00;94466.53;5075889;28;20202;-76
2021/08/14 04:38:32;;;;;;;22.58;10.07;;;;;;;15.23;100.00;94466.16;5076015;28;20198;-76
2021/08/14 04:40:59;;;;;;;18.95;10.57;;;;;;;15.24;100.00;94461.69;5075761;28;20194;-76
2021/08/14 04:43:25;;;;;;;23.13;11.15;;;;;;;15.35;100.00;94459.22;5075688;28;20811;-77
2021/08/14 04:45:56;;;;;;;18.90;10.65;;;;;;;15.35;100.00;94458.38;5075583;28;20235;-78
2021/08/14 04:48:22;;;;;;;21.58;10.88;;;;;;;15.35;100.00;94463.66;5075653;28;20227;-78
2021/08/14 04:50:50;;;;;;;15.85;9.75;;;;;;;15.38;100.00;94463.22;5075820;28;20194;-76
2021/08/14 04:53:18;;;;;;;19.95;10.23;;;;;;;15.33;100.00;94460.44;5075587;28;20275;-78
2021/08/14 04:55:45;;;;;;;17.73;10.43;;;;;;;15.34;100.00;94467.31;5075697;28;20226;-78
2021/08/14 04:58:13;;;;;;;19.10;10.48;;;;;;;15.45;100.00;94465.81;5075445;28;20668;-77
2021/08/14 05:00:39;;;;;;;19.10;10.90;;;;;;;15.47;100.00;94467.22;5075330;28;20209;-78
2021/08/14 05:03:09;;;;;;;20.75;10.07;;;;;;;15.57;100.00;94465.94;5075370;28;20206;-76
2021/08/14 05:05:37;;;;;;;16.70;10.80;;;;;;;15.71;100.00;94462.19;5075331;28;20657;-77
2021/08/14 05:08:04;;;;;;;15.73;9.98;;;;;;;15.81;100.00;94467.00;5075587;28;20199;-76
2021/08/14 05:10:32;;;;;;;14.30;9.45;;;;;;;15.86;100.00;94454.78;5075264;28;20580;-77
2021/08/14 05:12:58;;;;;;;16.55;10.25;;;;;;;15.91;100.00;94451.50;5075116;28;20727;-76
2021/08/14 05:15:24;;;;;;;17.25;10.32;;;;;;;15.97;100.00;94460.34;5075135;28;20202;-76
2021/08/14 05:17:51;;;;;;;16.08;8.80;;;;;;;15.99;100.00;94463.59;5075082;28;20202;-76
2021/08/14 05:20:17;;;;;;;19.60;8.55;;;;;;;15.95;100.00;94457.16;5075085;28;20543;-76
2021/08/14 05:22:44;;;;;;;15.13;9.15;;;;;;;15.95;100.00;94463.22;5075147;28;20570;-77
2021/08/14 05:25:11;;;;;;;15.98;8.60;;;;;;;16.07;100.00;94465.94;5075137;28;20205;-77
2021/08/14 05:27:39;;;;;;;17.88;9.68;;;;;;;16.23;100.00;94464.56;5074766;28;20553;-77
2021/08/14 05:30:06;;;;;;;20.30;9.88;;;;;;;16.40;100.00;94465.63;5074484;28;20194;-76
2021/08/14 05:32:32;;;;;;;14.88;9.23;;;;;;;16.49;100.00;94468.78;5075015;28;20207;-76
2021/08/14 05:35:01;;;;;;;23.63;9.15;;;;;;;16.55;100.00;94467.88;5075029;28;20230;-76
2021/08/14 05:37:27;;;;;;;14.63;8.70;;;;;;;16.60;100.00;94465.41;5074477;28;20210;-76
2021/08/14 05:39:54;;;;;;;13.10;8.05;;;;;;;16.67;100.00;94460.06;5074828;28;20561;-77
2021/08/14 05:42:22;;;;;;;13.35;7.70;;;;;;;16.74;100.00;94465.25;5075033;28;20199;-76
2021/08/14 05:44:50;;;;;;;15.73;8.38;;;;;;;16.85;100.00;94471.63;5074655;28;20632;-77
2021/08/14 05:47:17;;;;;;;12.80;8.10;;;;;;;16.95;100.00;94469.25;5074749;28;20204;-79
2021/08/14 05:49:43;;;;;;;13.10;8.05;;;;;;;17.01;100.00;94474.44;5074955;28;20206;-78
2021/08/14 05:52:09;;;;;;;10.20;6.97;;;;;;;17.11;100.00;94475.75;5074563;28;20195;-77
2021/08/14 05:54:36;;;;;;;12.57;7.95;;;;;;;17.22;100.00;94474.19;5074459;28;20230;-77
2021/08/14 05:57:05;;;;;;;14.85;8.30;;;;;;;17.34;100.00;94477.69;5074217;28;20558;-77
2021/08/14 05:59:31;;;;;;;11.35;7.88;;;;;;;17.47;100.00;94480.13;5074534;28;20198;-77
2021/08/14 06:01:59;;;;;;;14.85;8.45;;;;;;;17.57;100.00;94476.94;5074434;28;20210;-77
2021/08/14 06:04:25;;;;;;;13.52;8.05;;;;;;;17.73;100.00;94484.19;5074283;28;20213;-78
2021/08/14 06:06:52;;;;;;;11.73;7.57;;;;;;;17.89;100.00;94476.69;5074154;28;20199;-77
2021/08/14 06:09:21;;;;;;;14.05;8.65;;;;;;;18.05;100.00;94481.28;5074067;28;20291;-77
2021/08/14 06:11:50;;;;;;;12.25;6.85;;;;;;;18.21;100.00;94479.00;5073982;28;20202;-76
2021/08/14 06:14:17;;;;;;;10.38;7.03;;;;;;;18.33;100.00;94474.47;5074016;28;20234;-77
2021/08/14 06:16:43;;;;;;;10.60;7.22;;;;;;;18.44;100.00;94481.59;5074008;28;20203;-77
2021/08/14 06:19:11;;;;;;;11.95;7.18;;;;;;;18.59;100.00;94483.78;5074029;28;20199;-77
2021/08/14 06:21:38;;;;;;;10.95;6.82;;;;;;;18.78;100.00;94484.41;5073886;28;20207;-76
2021/08/14 06:24:06;;;;;;;12.40;7.40;;;;;;;19.01;100.00;94493.38;5073740;28;20228;-76
2021/08/14 06:26:33;;;;;;;11.25;7.03;;;;;;;19.37;100.00;94481.59;5073969;28;20612;-76
2021/08/14 06:29:02;;;;;;;10.32;6.43;;;;;;;19.92;100.00;94482.81;5074007;28;20294;-76
2021/08/14 06:31:30;;;;;;;10.10;5.75;;;;;;;20.54;100.00;94472.31;5073471;28;20195;-76
2021/08/14 06:33:59;;;;;;;12.88;5.80;;;;;;;21.00;100.00;94475.53;5073597;28;20222;-76
2021/08/14 06:36:31;;;;;;;14.48;6.28;;;;;;;21.17;100.00;94476.28;5073571;28;20206;-77
2021/08/14 06:39:02;;;;;;;7.65;5.57;;;;;;;21.44;100.00;94472.81;5073447;28;20551;-77
2021/08/14 06:41:32;;;;;;;8.10;5.10;;;;;;;21.89;100.00;94478.84;5072036;28;20440;-76
2021/08/14 06:43:58;;;;;;;10.50;5.75;;;;;;;21.76;100.00;94472.88;5073397;28;20229;-76
2021/08/14 06:46:26;;;;;;;9.27;5.50;;;;;;;21.81;100.00;94475.56;5073367;28;20194;-76
2021/08/14 06:48:53;;;;;;;7.32;5.18;;;;;;;21.67;100.00;94471.75;5073398;28;20624;-76
2021/08/14 06:51:19;;;;;;;7.88;5.10;;;;;;;22.05;100.00;94471.75;5073289;28;20206;-76
2021/08/14 06:53:48;;;;;;;9.65;5.47;;;;;;;22.19;99.87;94472.94;5073373;28;20581;-76
2021/08/14 06:56:15;;;;;;;9.93;5.68;;;;;;;21.97;100.00;94467.75;5073438;28;20199;-76
2021/08/14 06:58:41;;;;;;;9.10;5.95;;;;;;;22.11;100.00;94468.88;5073240;28;20198;-76
2021/08/14 07:01:08;;;;;;;9.60;5.25;;;;;;;22.21;100.00;94472.69;5072966;28;20301;-76
2021/08/14 07:03:34;;;;;;;9.93;5.10;;;;;;;22.18;100.00;94464.16;5073138;28;20199;-77
2021/08/14 07:06:01;;;;;;;8.57;5.55;;;;;;;22.39;100.00;94469.63;5073343;28;20199;-75
2021/08/14 07:08:27;;;;;;;8.23;5.28;;;;;;;22.48;98.31;94465.44;5073197;28;20199;-77
2021/08/14 07:10:55;;;;;;;11.25;5.53;;;;;;;22.44;99.27;94467.00;5073184;28;20203;-76
2021/08/14 07:13:22;;;;;;;10.75;5.93;;;;;;;22.62;97.58;94472.97;5072918;28;20225;-76
2021/08/14 07:15:48;;;;;;;10.68;5.57;;;;;;;22.69;97.20;94473.53;5073040;28;20205;-76
2021/08/14 07:18:14;;;;;;;8.48;5.55;;;;;;;22.76;95.64;94473.28;5073000;28;20282;-76
2021/08/14 07:20:41;;;;;;;8.82;5.32;;;;;;;22.72;98.04;94465.03;5073153;28;20194;-76
2021/08/14 07:23:07;;;;;;;11.13;5.63;;;;;;;22.90;95.51;94461.91;5073063;28;20199;-76
2021/08/14 07:25:34;;;;;;;12.70;6.10;;;;;;;22.97;93.30;94463.53;5072009;28;20486;-76
2021/08/14 07:28:02;;;;;;;9.18;5.55;;;;;;;23.08;93.68;94470.50;5073026;28;20203;-76
2021/08/14 07:30:29;;;;;;;9.07;5.57;;;;;;;23.20;94.92;94471.09;5072807;28;20205;-76
2021/08/14 07:32:55;;;;;;;9.82;5.57;;;;;;;23.42;93.49;94476.22;5073095;28;20203;-76
2021/08/14 07:35:22;;;;;;;10.50;5.65;;;;;;;23.60;96.66;94471.44;5073215;28;20231;-77
2021/08/14 07:37:50;;;;;;;8.43;5.57;;;;;;;23.59;88.71;94456.50;5073129;28;20199;-77
2021/08/14 07:40:17;;;;;;;12.52;5.88;;;;;;;23.49;85.62;94459.16;5072958;28;20202;-77
2021/08/14 07:42:44;;;;;;;11.82;6.05;;;;;;;23.73;87.16;94459.44;5072643;28;20674;-77
2021/08/14 07:45:15;;;;;;;14.88;7.47;;;;;;;23.72;87.77;94449.88;5072673;28;20245;-77
2021/08/14 07:47:47;;;;;;;12.13;7.32;;;;;;;23.69;89.44;94448.50;5072649;28;20660;-79
2021/08/14 07:50:17;;;;;;;9.27;6.20;;;;;;;23.84;85.95;94453.09;5072906;28;20206;-79
2021/08/14 07:52:44;;;;;;;12.23;6.45;;;;;;;24.00;86.53;94446.69;5074211;28;20189;-80
2021/08/14 07:55:13;;;;;;;11.35;6.38;;;;;;;24.03;85.40;94442.66;5074336;28;20321;-80
2021/08/14 07:57:40;;;;;;;15.75;8.10;;;;;;;24.04;85.96;94438.94;5076317;28;20206;-79
2021/08/14 08:00:09;;;;;;;12.82;6.47;;;;;;;24.05;84.57;94442.41;5076041;28;20240;-79
2021/08/14 08:02:37;;;;;;;12.70;5.57;;;;;;;24.13;88.08;94442.69;5076600;28;20198;-78
2021/08/14 08:05:05;;;;;;;11.35;5.70;;;;;;;24.31;85.92;94451.97;5076610;28;20564;-78
2021/08/14 08:07:32;;;;;;;12.57;6.22;;;;;;;24.28;82.98;94444.53;5076319;28;20198;-78
2021/08/14 08:10:02;;;;;;;10.35;5.25;;;;;;;24.28;82.32;94447.19;5076335;28;20207;-77
2021/08/14 08:12:28;;;;;;;8.50;5.20;;;;;;;24.40;80.24;94436.22;5076260;28;20294;-78
2021/08/14 08:14:57;;;;;;;16.10;5.50;;;;;;;24.39;84.20;94432.72;5076207;28;20237;-77
2021/08/14 08:17:25;;;;;;;20.08;10.55;;;;;;;24.69;88.50;94431.06;5076361;28;20202;-78
2021/08/14 08:19:53;;;;;;;62.75;28.48;;;;;;;24.75;81.13;94432.66;5076048;28;20561;-79
2021/08/14 08:22:26;;;;;;;14.73;8.23;;;;;;;24.75;81.34;94423.84;5075939;28;20612;-78
2021/08/14 08:24:53;;;;;;;20.13;8.18;;;;;;;24.88;82.09;94436.63;5075602;28;20610;-78
2021/08/14 08:27:20;;;;;;;17.83;9.30;;;;;;;24.79;80.67;94421.44;5076067;28;20213;-78
2021/08/14 08:29:46;;;;;;;14.35;7.93;;;;;;;24.92;81.25;94426.19;5075982;28;20213;-77
2021/08/14 08:32:15;;;;;;;14.48;7.43;;;;;;;25.01;80.80;94419.19;5075795;28;20653;-78
2021/08/14 08:34:41;;;;;;;16.58;8.75;;;;;;;25.09;80.62;94421.28;5075690;28;20592;-78
2021/08/14 08:37:09;;;;;;;13.05;7.20;;;;;;;25.05;80.05;94425.59;5075836;28;20241;-78
2021/08/14 08:39:38;;;;;;;18.60;5.95;;;;;;;24.99;82.97;94432.03;5075701;28;20840;-77
2021/08/14 08:42:08;;;;;;;10.30;5.35;;;;;;;25.14;80.43;94427.69;5075663;28;20241;-77
2021/08/14 08:44:35;;;;;;;13.07;5.28;;;;;;;25.28;75.52;94426.00;5075747;28;20233;-79
2021/08/14 08:47:03;;;;;;;11.15;5.30;;;;;;;25.11;79.22;94423.69;5075757;28;20206;-78
2021/08/14 08:49:30;;;;;;;12.73;5.82;;;;;;;25.29;78.19;94428.41;5074802;28;20492;-78
2021/08/14 08:51:57;;;;;;;11.00;5.55;;;;;;;25.47;78.79;94410.91;5075479;28;20669;-78
2021/08/14 08:54:24;;;;;;;11.20;5.60;;;;;;;25.79;79.82;94417.63;5075544;28;20703;-77
2021/08/14 08:56:51;;;;;;;8.75;5.18;;;;;;;25.83;75.34;94416.00;5075334;28;20627;-76
2021/08/14 08:59:17;;;;;;;10.52;5.47;;;;;;;25.95;78.02;94421.00;5075655;28;20615;-75
2021/08/14 09:01:44;;;;;;;9.52;5.43;;;;;;;25.51;77.99;94421.06;5075371;28;20649;-76
2021/08/14 09:04:22;;;;;;;9.25;5.63;;;;;;;25.58;75.87;94425.03;5074280;28;20199;-76
2021/08/14 09:06:49;;;;;;;9.45;5.30;;;;;;;25.49;77.89;94422.13;5075301;28;20198;-76
2021/08/14 09:09:15;;;;;;;9.73;5.97;;;;;;;25.43;76.80;94425.13;5074522;28;20680;-76
2021/08/14 09:11:50;;;;;;;12.98;5.57;;;;;;;25.32;77.30;94419.06;5075256;28;20297;-76
2021/08/14 09:14:19;;;;;;;9.60;5.65;;;;;;;25.41;74.76;94417.38;5075176;28;20226;-76
2021/08/14 09:16:45;;;;;;;8.70;5.80;;;;;;;25.49;77.00;94416.78;5075086;28;20203;-76
2021/08/14 09:19:23;;;;;;;10.13;5.45;;;;;;;25.46;79.48;94409.34;5074971;28;20211;-76
2021/08/14 09:21:50;;;;;;;12.65;5.85;;;;;;;25.73;78.29;94412.59;5075234;28;20202;-75
2021/08/14 09:24:31;;;;;;;10.68;5.65;;;;;;;25.96;79.06;94411.09;5074894;28;20230;-76
2021/08/14 09:27:03;;;;;;;8.27;5.60;;;;;;;26.05;74.61;94414.78;5075067;28;20679;-75
2021/08/14 09:29:32;;;;;;;11.77;5.38;;;;;;;25.61;74.50;94411.09;5074888;28;20198;-76
2021/08/14 09:32:05;;;;;;;10.00;5.18;;;;;;;25.62;77.41;94417.25;5074457;28;20199;-76
2021/08/14 09:34:32;;;;;;;7.22;5.40;;;;;;;25.71;77.18;94406.75;5074970;28;20318;-77
2021/08/14 09:37:00;;;;;;;16.13;6.15;;;;;;;25.87;73.60;94407.41;5074948;28;20211;-78
2021/08/14 09:39:27;;;;;;;10.25;5.88;;;;;;;25.88;75.46;94409.00;5074610;28;20222;-77
2021/08/14 09:42:06;;;;;;;8.75;5.72;;;;;;;25.75;73.59;94405.91;5074698;28;20195;-77
2021/08/14 09:44:33;;;;;;;11.50;5.40;;;;;;;25.58;73.89;94400.97;5074251;28;20245;-77
2021/08/14 09:46:59;;;;;;;12.48;5.25;;;;;;;25.78;72.82;94402.66;5074351;28;20209;-76
2021/08/14 09:49:26;;;;;;;8.77;5.22;;;;;;;25.73;73.09;94397.38;5074697;28;20199;-76
2021/08/14 09:51:52;;;;;;;9.85;5.65;;;;;;;26.03;72.83;94400.88;5074401;28;20210;-77
2021/08/14 09:54:19;;;;;;;11.80;5.55;;;;;;;25.97;72.91;94396.66;5074302;28;20218;-76
2021/08/14 09:56:45;;;;;;;9.57;4.43;;;;;;;26.21;74.85;94392.13;5074318;28;20202;-77
2021/08/14 09:59:14;;;;;;;10.10;5.60;;;;;;;26.55;69.65;94391.22;5074212;28;20206;-76
2021/08/14 10:01:42;;;;;;;10.75;5.82;;;;;;;26.63;74.88;94381.78;5074410;28;20214;-76
2021/08/14 10:04:09;;;;;;;11.25;5.22;;;;;;;26.94;70.00;94379.50;5074228;28;20199;-76
2021/08/14 10:06:37;;;;;;;9.38;5.30;;;;;;;27.36;67.08;94376.28;5074068;28;20199;-77
2021/08/14 10:09:04;;;;;;;12.70;5.47;;;;;;;27.64;73.13;94369.94;5074097;28;20675;-76
2021/08/14 10:11:31;;;;;;;15.93;5.93;;;;;;;27.46;69.43;94370.75;5074243;28;20307;-77
2021/08/14 10:13:58;;;;;;;11.38;5.25;;;;;;;27.36;68.93;94370.91;5073940;28;20202;-76
2021/08/14 10:16:26;;;;;;;13.18;5.18;;;;;;;27.62;69.67;94374.78;5073009;28;20202;-77
2021/08/14 10:18:54;;;;;;;8.95;5.15;;;;;;;27.22;71.08;94374.31;5073959;28;20206;-76
2021/08/14 10:21:20;;;;;;;10.15;5.20;;;;;;;27.07;71.03;94366.50;5073477;28;20203;-76
2021/08/14 10:23:47;;;;;;;10.75;5.32;;;;;;;27.49;70.28;94359.44;5073925;28;20243;-76
2021/08/14 10:26:17;;;;;;;9.25;5.07;;;;;;;27.42;66.26;94364.41;5073463;28;20199;-77
2021/08/14 10:28:46;;;;;;;8.65;4.78;;;;;;;27.38;66.88;94358.00;5074226;28;20210;-76
2021/08/14 10:31:47;;;;;;;10.60;5.00;;;;;;;27.68;64.63;94354.06;5073861;28;20199;-77
2021/08/14 10:34:33;;;;;;;9.68;5.05;;;;;;;27.79;64.78;94349.31;5073413;28;20285;-77
2021/08/14 10:37:01;;;;;;;15.82;5.55;;;;;;;27.83;66.42;94336.91;5073620;28;20545;-77
2021/08/14 10:39:33;;;;;;;11.75;4.95;;;;;;;27.68;69.24;94340.66;5073445;28;20210;-77
2021/08/14 10:42:01;;;;;;;8.70;4.90;;;;;;;28.14;68.13;94349.78;5073617;28;20203;-78
2021/08/14 10:44:46;;;;;;;14.65;5.35;;;;;;;28.01;72.82;94344.13;5073195;28;20226;-78
2021/08/14 10:47:43;;;;;;;9.00;4.78;;;;;;;28.14;70.12;94341.72;5073362;28;20618;-77
2021/08/14 10:50:31;;;;;;;8.57;4.80;;;;;;;28.23;63.85;94339.97;5065154;28;20230;-77
2021/08/14 10:53:15;;;;;;;9.98;4.88;;;;;;;27.81;65.44;94337.19;5072973;28;20198;-77
2021/08/14 10:55:43;;;;;;;9.13;5.22;;;;;;;27.87;65.42;94343.25;5073114;28;20276;-75
2021/08/14 10:58:17;;;;;;;8.88;4.93;;;;;;;27.69;68.93;94342.22;5073321;28;20210;-76
2021/08/14 11:00:46;;;;;;;13.48;4.82;;;;;;;28.01;66.74;94333.38;5073167;28;20205;-76
2021/08/14 11:03:19;;;;;;;11.57;5.00;;;;;;;28.05;67.66;94331.69;5073025;28;20543;-76
2021/08/14 11:05:47;;;;;;;13.23;5.25;;;;;;;28.59;69.44;94317.78;5073269;28;20203;-77
2021/08/14 11:08:25;;;;;;;9.30;5.03;;;;;;;28.62;67.22;94324.44;5073313;28;20199;-77
2021/08/14 11:10:52;;;;;;;12.05;5.63;;;;;;;28.84;64.76;94321.03;5073281;28;20194;-76
2021/08/14 11:14:11;;;;;;;13.25;5.40;;;;;;;28.83;62.70;94317.53;5074306;28;20213;-77
2021/08/14 11:17:01;;;;;;;13.77;5.22;;;;;;;29.18;61.33;94315.19;5073872;28;20213;-76
2021/08/14 11:20:02;;;;;;;12.98;5.07;;;;;;;29.21;63.47;94311.88;5073141;28;20593;-76
2021/08/14 11:22:35;;;;;;;10.43;4.90;;;;;;;29.38;63.80;94308.53;5073218;28;20201;-77
2021/08/14 11:25:04;;;;;;;12.07;5.65;;;;;;;29.29;66.61;94303.06;5072239;28;20925;-77
2021/08/14 11:27:33;;;;;;;12.60;5.20;;;;;;;29.52;66.87;94301.16;5071919;28;20199;-76